createdAt,value
2016-12-23T00:00:48.967Z,16.3
2016-12-23T00:01:59.576Z,16.34
2016-12-23T00:03:10.481Z,16.31
2016-12-23T00:04:21.391Z,16.41
2016-12-23T00:05:31.948Z,16.35
2016-12-23T00:06:42.865Z,16.3
2016-12-23T00:07:53.815Z,16.35
2016-12-23T00:09:04.380Z,16.27
2016-12-23T00:10:15.293Z,16.25
2016-12-23T00:11:26.210Z,16.31
2016-12-23T00:12:37.120Z,16.3
2016-12-23T00:13:47.736Z,16.33
2016-12-23T00:14:58.634Z,16.34
2016-12-23T00:16:09.546Z,16.34
2016-12-23T00:17:20.448Z,16.34
2016-12-23T00:18:31.357Z,16.33
2016-12-23T00:19:41.962Z,16.27
2016-12-23T00:20:52.896Z,16.21
2016-12-23T00:22:03.113Z,16.34
2016-12-23T00:23:14.023Z,16.25
2016-12-23T00:24:24.938Z,16.25
2016-12-23T00:25:35.892Z,16.3
2016-12-23T00:26:46.791Z,16.28
2016-12-23T00:27:57.695Z,16.27
2016-12-23T00:29:08.607Z,16.28
2016-12-23T00:30:19.522Z,16.27
2016-12-23T00:31:30.502Z,16.21
2016-12-23T00:32:41.411Z,16.2
2016-12-23T00:33:52.325Z,16.21
2016-12-23T00:35:03.229Z,16.24
2016-12-23T00:36:14.131Z,16.15
2016-12-23T00:37:24.740Z,16.27
2016-12-23T00:38:35.641Z,16.21
2016-12-23T00:39:46.550Z,16.21
2016-12-23T00:40:57.452Z,16.14
2016-12-23T00:42:07.669Z,16.17
2016-12-23T00:43:18.310Z,16.23
2016-12-23T00:44:29.223Z,16.23
2016-12-23T00:45:40.124Z,16.14
2016-12-23T00:46:50.694Z,16.2
2016-12-23T00:48:01.603Z,16.12
2016-12-23T00:49:12.564Z,16.15
2016-12-23T00:50:23.501Z,16.12
2016-12-23T00:51:34.063Z,16.11
2016-12-23T00:52:44.976Z,16.11
2016-12-23T00:53:55.881Z,16.09
2016-12-23T00:55:06.846Z,16.17
2016-12-23T00:56:17.751Z,16.15
2016-12-23T00:57:27.964Z,16.04
2016-12-23T00:58:38.874Z,16.04
2016-12-23T00:59:49.806Z,16.08
2016-12-23T01:01:00.073Z,16.12
2016-12-23T01:02:10.625Z,16.04
2016-12-23T01:03:21.534Z,16.02
2016-12-23T01:04:32.439Z,16.02
2016-12-23T01:05:43.345Z,16.12
2016-12-23T01:06:53.962Z,16.02
2016-12-23T01:08:04.875Z,16.09
2016-12-23T01:09:15.804Z,16.08
2016-12-23T01:10:26.358Z,16.05
2016-12-23T01:11:37.263Z,16.05
2016-12-23T01:12:48.224Z,16.07
2016-12-23T01:13:59.133Z,16.04
2016-12-23T01:15:10.038Z,16
2016-12-23T01:16:20.599Z,16
2016-12-23T01:17:31.509Z,15.97
2016-12-23T01:18:42.462Z,15.9
2016-12-23T01:19:53.367Z,15.89
2016-12-23T01:21:03.952Z,16.04
2016-12-23T01:22:14.865Z,16.02
2016-12-23T01:23:25.779Z,15.97
2016-12-23T01:24:36.736Z,16.02
2016-12-23T01:25:47.641Z,16.01
2016-12-23T01:26:57.530Z,15.94
2016-12-23T01:28:08.439Z,15.97
2016-12-23T01:29:19.345Z,15.93
2016-12-23T01:30:30.289Z,16
2016-12-23T01:31:40.851Z,15.94
2016-12-23T01:32:51.760Z,15.93
2016-12-23T01:34:02.661Z,16
2016-12-23T01:35:13.566Z,15.96
2016-12-23T01:36:24.523Z,16
2016-12-23T01:37:35.433Z,15.92
2016-12-23T01:38:46.338Z,15.92
2016-12-23T01:39:56.903Z,15.97
2016-12-23T01:41:07.816Z,15.96
2016-12-23T01:42:18.769Z,15.93
2016-12-23T01:43:29.346Z,15.94
2016-12-23T01:44:39.908Z,15.92
2016-12-23T01:45:50.845Z,15.93
2016-12-23T01:47:01.752Z,15.78
2016-12-23T01:48:12.715Z,15.9
2016-12-23T01:49:23.620Z,15.94
2016-12-23T01:50:34.528Z,15.87
2016-12-23T01:51:45.095Z,15.82
2016-12-23T01:52:56.004Z,15.86
2016-12-23T01:54:06.969Z,15.93
2016-12-23T01:55:17.870Z,15.86
2016-12-23T01:56:28.075Z,15.82
2016-12-23T01:57:38.984Z,15.83
2016-12-23T01:58:49.577Z,15.86
2016-12-23T02:00:00.535Z,15.78
2016-12-23T02:01:11.439Z,15.74
2016-12-23T02:02:22.341Z,15.78
2016-12-23T02:03:32.906Z,15.72
2016-12-23T02:04:43.467Z,15.8
2016-12-23T02:05:54.076Z,15.75
2016-12-23T02:07:04.981Z,15.87
2016-12-23T02:08:15.202Z,15.74
2016-12-23T02:09:25.759Z,15.64
2016-12-23T02:10:35.980Z,15.74
2016-12-23T02:11:46.597Z,15.74
2016-12-23T02:12:57.523Z,15.83
2016-12-23T02:14:08.428Z,15.68
2016-12-23T02:15:18.989Z,15.69
2016-12-23T02:16:29.582Z,15.72
2016-12-23T02:17:40.219Z,15.69
2016-12-23T02:18:50.789Z,15.72
2016-12-23T02:20:01.017Z,15.68
2016-12-23T02:21:11.922Z,15.65
2016-12-23T02:22:22.828Z,15.67
2016-12-23T02:23:33.537Z,15.67
2016-12-23T02:24:44.454Z,15.62
2016-12-23T02:25:55.359Z,15.67
2016-12-23T02:27:05.576Z,15.67
2016-12-23T02:28:16.477Z,15.64
2016-12-23T02:29:27.437Z,15.64
2016-12-23T02:30:38.359Z,15.68
2016-12-23T02:31:48.577Z,15.68
2016-12-23T02:32:59.172Z,15.51
2016-12-23T02:34:09.731Z,15.59
2016-12-23T02:35:20.684Z,15.59
2016-12-23T02:36:31.589Z,15.51
2016-12-23T02:37:42.147Z,15.57
2016-12-23T02:38:52.744Z,15.6
2016-12-23T02:40:03.305Z,15.57
2016-12-23T02:41:13.918Z,15.5
2016-12-23T02:42:24.831Z,15.59
2016-12-23T02:43:35.397Z,15.54
2016-12-23T02:44:45.958Z,15.57
2016-12-23T02:45:56.542Z,15.51
2016-12-23T02:47:07.488Z,15.56
2016-12-23T02:48:18.057Z,15.49
2016-12-23T02:49:28.610Z,15.5
2016-12-23T02:50:39.180Z,15.46
2016-12-23T02:51:50.137Z,15.43
2016-12-23T02:53:00.746Z,15.41
2016-12-23T02:54:11.663Z,15.46
2016-12-23T02:55:22.572Z,15.39
2016-12-23T02:56:33.145Z,15.41
2016-12-23T02:57:43.719Z,15.43
2016-12-23T02:58:54.676Z,15.41
2016-12-23T03:00:05.240Z,15.44
2016-12-23T03:01:16.142Z,15.36
2016-12-23T03:02:26.695Z,15.43
2016-12-23T03:03:37.288Z,15.46
2016-12-23T03:04:47.913Z,15.46
2016-12-23T03:05:58.811Z,15.38
2016-12-23T03:07:09.396Z,15.38
2016-12-23T03:08:19.993Z,15.41
2016-12-23T03:09:30.550Z,15.36
2016-12-23T03:10:41.167Z,15.44
2016-12-23T03:11:51.729Z,15.31
2016-12-23T03:13:02.294Z,15.36
2016-12-23T03:14:13.207Z,15.34
2016-12-23T03:15:24.116Z,15.32
2016-12-23T03:16:35.061Z,15.38
2016-12-23T03:17:45.614Z,15.32
2016-12-23T03:18:56.523Z,15.29
2016-12-23T03:20:07.425Z,15.32
2016-12-23T03:21:18.322Z,15.29
2016-12-23T03:22:28.591Z,15.35
2016-12-23T03:23:39.492Z,15.27
2016-12-23T03:24:50.401Z,15.29
2016-12-23T03:26:00.963Z,15.35
2016-12-23T03:27:11.864Z,15.25
2016-12-23T03:28:22.637Z,15.28
2016-12-23T03:29:33.198Z,15.17
2016-12-23T03:30:44.107Z,15.27
2016-12-23T03:31:55.016Z,15.29
2016-12-23T03:33:05.578Z,15.29
2016-12-23T03:34:16.528Z,15.27
2016-12-23T03:35:27.436Z,15.29
2016-12-23T03:36:37.997Z,15.32
2016-12-23T03:37:48.898Z,15.25
2016-12-23T03:38:59.804Z,15.21
2016-12-23T03:40:10.421Z,15.23
2016-12-23T03:41:21.334Z,15.23
2016-12-23T03:42:32.239Z,15.23
2016-12-23T03:43:43.144Z,15.2
2016-12-23T03:44:53.697Z,15.2
2016-12-23T03:46:04.662Z,15.2
2016-12-23T03:47:15.568Z,15.23
2016-12-23T03:48:26.133Z,15.13
2016-12-23T03:49:36.726Z,15.29
2016-12-23T03:50:47.284Z,15.13
2016-12-23T03:51:57.897Z,15.13
2016-12-23T03:53:08.466Z,15.16
2016-12-23T03:54:19.371Z,15.16
2016-12-23T03:55:29.956Z,15.2
2016-12-23T03:56:40.522Z,15.2
2016-12-23T03:57:51.475Z,15.19
2016-12-23T03:59:02.032Z,15.27
2016-12-23T04:00:12.253Z,15.19
2016-12-23T04:01:23.158Z,15.2
2016-12-23T04:02:33.723Z,15.25
2016-12-23T04:03:44.684Z,15.14
2016-12-23T04:04:55.590Z,15.06
2016-12-23T04:06:06.151Z,15.19
2016-12-23T04:07:16.704Z,15.16
2016-12-23T04:08:27.609Z,15.19
2016-12-23T04:09:38.222Z,15.21
2016-12-23T04:10:48.788Z,15.17
2016-12-23T04:11:59.349Z,15.23
2016-12-23T04:13:10.258Z,15.16
2016-12-23T04:14:21.163Z,15.16
2016-12-23T04:15:31.781Z,15.16
2016-12-23T04:16:42.685Z,15.13
2016-12-23T04:17:53.243Z,15.19
2016-12-23T04:19:03.148Z,15.16
2016-12-23T04:20:14.061Z,15.2
2016-12-23T04:21:25.022Z,15.17
2016-12-23T04:22:35.584Z,15.14
2016-12-23T04:23:46.489Z,15.17
2016-12-23T04:24:57.054Z,15.17
2016-12-23T04:26:07.607Z,15.11
2016-12-23T04:27:18.217Z,15.1
2016-12-23T04:28:28.781Z,15.14
2016-12-23T04:29:39.690Z,15.07
2016-12-23T04:30:50.600Z,15.13
2016-12-23T04:32:01.153Z,15.14
2016-12-23T04:33:12.110Z,15.07
2016-12-23T04:34:23.016Z,15.1
2016-12-23T04:35:33.585Z,15.1
2016-12-23T04:36:43.806Z,15.07
2016-12-23T04:37:54.710Z,15.1
2016-12-23T04:39:05.680Z,15.09
2016-12-23T04:40:16.577Z,15.07
2016-12-23T04:41:27.154Z,15.06
2016-12-23T04:42:38.064Z,15.07
2016-12-23T04:43:48.627Z,15.02
2016-12-23T04:44:59.402Z,15.07
2016-12-23T04:46:09.995Z,15.06
2016-12-23T04:47:20.912Z,15.07
2016-12-23T04:48:31.134Z,15.14
2016-12-23T04:49:41.694Z,15.09
2016-12-23T04:50:52.335Z,14.99
2016-12-23T04:52:03.240Z,15.09
2016-12-23T04:53:14.142Z,15.01
2016-12-23T04:54:24.707Z,15.06
2016-12-23T04:55:35.640Z,14.96
2016-12-23T04:56:46.253Z,15.01
2016-12-23T04:57:56.814Z,15.07
2016-12-23T04:59:07.376Z,14.99
2016-12-23T05:00:18.305Z,15.09
2016-12-23T05:01:28.877Z,15.02
2016-12-23T05:02:39.831Z,14.95
2016-12-23T05:03:50.392Z,15.01
2016-12-23T05:05:01.306Z,14.96
2016-12-23T05:06:11.870Z,15.06
2016-12-23T05:07:22.784Z,14.96
2016-12-23T05:08:33.449Z,14.91
2016-12-23T05:09:44.358Z,14.91
2016-12-23T05:10:54.927Z,14.96
2016-12-23T05:12:05.136Z,14.94
2016-12-23T05:13:15.706Z,14.91
2016-12-23T05:14:26.659Z,14.94
2016-12-23T05:15:37.224Z,14.92
2016-12-23T05:16:47.785Z,14.92
2016-12-23T05:17:58.350Z,14.94
2016-12-23T05:19:08.576Z,14.95
2016-12-23T05:20:19.525Z,14.98
2016-12-23T05:21:30.434Z,14.92
2016-12-23T05:22:41.023Z,14.92
2016-12-23T05:23:51.924Z,14.96
2016-12-23T05:25:03.042Z,14.95
2016-12-23T05:26:13.995Z,14.89
2016-12-23T05:27:24.556Z,14.99
2016-12-23T05:28:35.118Z,14.98
2016-12-23T05:29:46.023Z,14.95
2016-12-23T05:30:56.928Z,14.89
2016-12-23T05:32:07.649Z,14.95
2016-12-23T05:33:18.562Z,14.86
2016-12-23T05:34:28.787Z,14.84
2016-12-23T05:35:39.352Z,14.88
2016-12-23T05:36:49.918Z,14.86
2016-12-23T05:38:00.551Z,14.78
2016-12-23T05:39:11.464Z,14.84
2016-12-23T05:40:22.373Z,14.88
2016-12-23T05:41:32.938Z,14.84
2016-12-23T05:42:43.152Z,14.78
2016-12-23T05:43:53.777Z,14.88
2016-12-23T05:45:04.702Z,14.88
2016-12-23T05:46:15.276Z,14.75
2016-12-23T05:47:26.189Z,14.89
2016-12-23T05:48:37.094Z,14.84
2016-12-23T05:49:47.711Z,14.8
2016-12-23T05:50:58.617Z,14.77
2016-12-23T05:52:09.530Z,14.8
2016-12-23T05:53:20.458Z,14.88
2016-12-23T05:54:31.364Z,14.95
2016-12-23T05:55:41.973Z,14.78
2016-12-23T05:56:52.878Z,14.84
2016-12-23T05:58:03.787Z,14.8
2016-12-23T05:59:14.352Z,14.86
2016-12-23T06:00:24.563Z,14.73
2016-12-23T06:01:35.167Z,14.78
2016-12-23T06:02:45.724Z,14.81
2016-12-23T06:03:56.289Z,14.8
2016-12-23T06:05:07.227Z,14.8
2016-12-23T06:06:18.132Z,14.83
2016-12-23T06:07:29.085Z,14.81
2016-12-23T06:08:39.655Z,14.8
2016-12-23T06:09:50.563Z,14.77
2016-12-23T06:11:01.124Z,14.8
2016-12-23T06:12:12.025Z,14.65
2016-12-23T06:13:22.631Z,14.72
2016-12-23T06:14:33.188Z,14.73
2016-12-23T06:15:44.094Z,14.89
2016-12-23T06:16:55.006Z,14.78
2016-12-23T06:18:05.912Z,14.77
2016-12-23T06:19:16.869Z,14.84
2016-12-23T06:20:27.426Z,14.78
2016-12-23T06:21:38.323Z,14.81
2016-12-23T06:22:49.228Z,14.7
2016-12-23T06:23:59.802Z,14.78
2016-12-23T06:25:10.411Z,14.78
2016-12-23T06:26:21.312Z,14.83
2016-12-23T06:27:32.209Z,14.72
2016-12-23T06:28:42.783Z,14.69
2016-12-23T06:29:52.999Z,14.78
2016-12-23T06:31:03.601Z,14.83
2016-12-23T06:32:14.170Z,14.73
2016-12-23T06:33:24.735Z,14.78
2016-12-23T06:34:35.644Z,14.77
2016-12-23T06:35:46.550Z,14.75
2016-12-23T06:36:56.675Z,14.81
2016-12-23T06:38:07.236Z,14.75
2016-12-23T06:39:18.139Z,14.77
2016-12-23T06:40:28.698Z,14.8
2016-12-23T06:41:39.608Z,14.78
2016-12-23T06:42:50.569Z,14.78
2016-12-23T06:44:01.130Z,14.83
2016-12-23T06:45:12.035Z,14.73
2016-12-23T06:46:22.940Z,14.77
2016-12-23T06:47:33.153Z,14.75
2016-12-23T06:48:44.110Z,14.83
2016-12-23T06:49:55.036Z,14.78
2016-12-23T06:51:05.605Z,14.81
2016-12-23T06:52:16.162Z,14.84
2016-12-23T06:53:27.068Z,14.8
2016-12-23T06:54:38.029Z,14.72
2016-12-23T06:55:48.950Z,14.78
2016-12-23T06:56:59.859Z,14.69
2016-12-23T06:58:10.804Z,14.73
2016-12-23T06:59:21.361Z,14.68
2016-12-23T07:00:32.318Z,14.78
2016-12-23T07:01:42.884Z,14.83
2016-12-23T07:02:53.781Z,14.8
2016-12-23T07:04:04.702Z,14.69
2016-12-23T07:05:15.259Z,14.86
2016-12-23T07:06:26.225Z,14.78
2016-12-23T07:07:36.813Z,14.72
2016-12-23T07:08:47.379Z,14.69
2016-12-23T07:09:58.288Z,14.64
2016-12-23T07:11:08.841Z,14.69
2016-12-23T07:12:19.802Z,14.72
2016-12-23T07:13:30.392Z,14.75
2016-12-23T07:14:41.001Z,14.69
2016-12-23T07:15:52.014Z,14.73
2016-12-23T07:17:02.235Z,14.8
2016-12-23T07:18:13.144Z,14.78
2016-12-23T07:19:23.733Z,14.78
2016-12-23T07:20:34.678Z,14.77
2016-12-23T07:21:45.244Z,14.78
2016-12-23T07:22:55.817Z,14.81
2016-12-23T07:24:06.730Z,14.77
2016-12-23T07:25:17.576Z,14.81
2016-12-23T07:26:28.408Z,14.78
2016-12-23T07:27:39.318Z,14.78
2016-12-23T07:28:50.231Z,14.81
2016-12-23T07:30:01.140Z,14.7
2016-12-23T07:31:12.041Z,14.69
2016-12-23T07:32:22.661Z,14.8
2016-12-23T07:33:32.892Z,14.69
2016-12-23T07:34:43.457Z,14.68
2016-12-23T07:35:54.054Z,14.77
2016-12-23T07:37:04.959Z,14.8
2016-12-23T07:38:15.572Z,14.69
2016-12-23T07:39:26.141Z,14.84
2016-12-23T07:40:49.443Z,14.8
2016-12-23T07:42:00.352Z,14.8
2016-12-23T07:43:10.973Z,14.75
2016-12-23T07:44:21.878Z,14.69
2016-12-23T07:45:32.776Z,14.75
2016-12-23T07:46:43.688Z,14.69
2016-12-23T07:47:54.598Z,14.78
2016-12-23T07:49:05.208Z,14.81
2016-12-23T07:50:16.080Z,14.77
2016-12-23T07:51:26.641Z,14.8
2016-12-23T07:52:36.855Z,14.8
2016-12-23T07:53:47.420Z,14.84
2016-12-23T07:54:58.481Z,14.86
2016-12-23T07:56:09.014Z,14.89
2016-12-23T07:57:19.599Z,14.73
2016-12-23T07:58:30.500Z,14.78
2016-12-23T07:59:41.066Z,14.73
2016-12-23T08:00:52.027Z,14.89
2016-12-23T08:02:02.612Z,14.78
2016-12-23T08:03:13.173Z,14.84
2016-12-23T08:04:23.746Z,14.81
2016-12-23T08:05:34.663Z,14.86
2016-12-23T08:06:45.624Z,14.77
2016-12-23T08:07:56.530Z,14.96
2016-12-23T08:09:07.439Z,14.86
2016-12-23T08:10:18.344Z,14.94
2016-12-23T08:11:28.573Z,14.86
2016-12-23T08:12:39.727Z,14.84
2016-12-23T08:13:50.292Z,14.81
2016-12-23T08:15:01.205Z,14.88
2016-12-23T08:16:11.070Z,14.94
2016-12-23T08:17:21.643Z,14.92
2016-12-23T08:18:32.608Z,14.94
2016-12-23T08:19:43.169Z,14.88
2016-12-23T08:20:53.732Z,14.84
2016-12-23T08:22:04.303Z,14.95
2016-12-23T08:23:14.868Z,14.91
2016-12-23T08:24:25.869Z,14.95
2016-12-23T08:25:36.438Z,15.01
2016-12-23T08:26:47.347Z,14.99
2016-12-23T08:27:57.936Z,14.96
2016-12-23T08:29:08.833Z,14.99
2016-12-23T08:30:19.450Z,14.99
2016-12-23T08:31:30.011Z,15.02
2016-12-23T08:32:40.236Z,15.06
2016-12-23T08:33:51.141Z,15.02
2016-12-23T08:35:02.046Z,15.07
2016-12-23T08:36:12.651Z,15.02
2016-12-23T08:37:23.212Z,15.13
2016-12-23T08:38:33.434Z,15.17
2016-12-23T08:39:44.339Z,15.17
2016-12-23T08:40:55.244Z,15.19
2016-12-23T08:42:05.865Z,15.14
2016-12-23T08:43:16.094Z,15.29
2016-12-23T08:44:26.663Z,15.19
2016-12-23T08:45:37.220Z,15.19
2016-12-23T08:46:48.125Z,15.16
2016-12-23T08:47:58.842Z,15.2
2016-12-23T08:49:09.763Z,15.25
2016-12-23T08:50:20.673Z,15.25
2016-12-23T08:51:31.230Z,15.21
2016-12-23T08:52:41.803Z,15.14
2016-12-23T08:53:52.764Z,15.1
2016-12-23T08:55:03.679Z,15.1
2016-12-23T08:56:14.242Z,15.32
2016-12-23T08:57:25.143Z,15.2
2016-12-23T08:58:35.369Z,15.21
2016-12-23T08:59:45.982Z,15.29
2016-12-23T09:00:56.895Z,15.16
2016-12-23T09:02:07.808Z,15.25
2016-12-23T09:03:18.713Z,15.27
2016-12-23T09:04:28.930Z,15.31
2016-12-23T09:05:39.548Z,15.31
2016-12-23T09:06:50.449Z,15.25
2016-12-23T09:08:01.019Z,15.29
2016-12-23T09:09:11.923Z,15.27
2016-12-23T09:10:22.836Z,15.34
2016-12-23T09:11:33.446Z,15.23
2016-12-23T09:12:44.355Z,15.29
2016-12-23T09:13:55.252Z,15.19
2016-12-23T09:15:05.817Z,15.14
2016-12-23T09:16:16.386Z,15.2
2016-12-23T09:17:26.679Z,15.09
2016-12-23T09:18:37.268Z,15.25
2016-12-23T09:19:47.826Z,15.21
2016-12-23T09:20:58.391Z,15.16
2016-12-23T09:22:09.764Z,15.23
2016-12-23T09:23:20.724Z,15.13
2016-12-23T09:24:31.634Z,15.17
2016-12-23T09:25:42.235Z,15.19
2016-12-23T09:26:52.800Z,15.23
2016-12-23T09:28:03.702Z,15.2
2016-12-23T09:29:13.959Z,15.14
2016-12-23T09:30:24.524Z,15.07
2016-12-23T09:31:35.445Z,15.07
2016-12-23T09:32:46.358Z,15.03
2016-12-23T09:33:57.271Z,15.16
2016-12-23T09:35:08.233Z,15.2
2016-12-23T09:36:19.142Z,15.25
2016-12-23T09:37:30.051Z,15.2
2016-12-23T09:38:40.624Z,15.19
2016-12-23T09:39:51.526Z,15.19
2016-12-23T09:41:02.139Z,15.29
2016-12-23T09:42:12.728Z,15.25
2016-12-23T09:43:23.664Z,15.27
2016-12-23T09:44:34.570Z,15.31
2016-12-23T09:45:45.132Z,15.27
2016-12-23T09:46:56.101Z,15.43
2016-12-23T09:48:07.006Z,15.34
2016-12-23T09:49:17.363Z,15.44
2016-12-23T09:50:28.268Z,15.38
2016-12-23T09:51:39.188Z,15.49
2016-12-23T09:52:50.163Z,15.44
2016-12-23T09:54:01.072Z,15.57
2016-12-23T09:55:11.641Z,15.56
2016-12-23T09:56:22.542Z,15.64
2016-12-23T09:57:33.452Z,15.6
2016-12-23T09:58:44.056Z,15.67
2016-12-23T09:59:54.619Z,15.68
2016-12-23T10:01:05.195Z,15.71
2016-12-23T10:02:16.100Z,15.78
2016-12-23T10:03:26.665Z,15.75
2016-12-23T10:04:37.571Z,15.8
2016-12-23T10:05:47.800Z,15.84
2016-12-23T10:06:58.709Z,15.78
2016-12-23T10:08:09.626Z,15.92
2016-12-23T10:09:20.580Z,15.8
2016-12-23T10:10:31.489Z,15.89
2016-12-23T10:11:42.406Z,15.9
2016-12-23T10:12:53.339Z,15.92
2016-12-23T10:14:04.253Z,15.94
2016-12-23T10:15:14.522Z,15.94
2016-12-23T10:16:25.095Z,16.07
2016-12-23T10:17:35.668Z,16.04
2016-12-23T10:18:46.585Z,16.14
2016-12-23T10:19:57.499Z,16.17
2016-12-23T10:21:08.104Z,16.24
2016-12-23T10:22:18.697Z,16.23
2016-12-23T10:23:29.595Z,16.2
2016-12-23T10:24:40.168Z,16.33
2016-12-23T10:25:51.073Z,16.34
2016-12-23T10:27:02.050Z,16.34
2016-12-23T10:28:12.959Z,16.38
2016-12-23T10:29:23.875Z,16.39
2016-12-23T10:30:34.442Z,16.42
2016-12-23T10:31:45.011Z,16.49
2016-12-23T10:32:55.624Z,16.49
2016-12-23T10:34:06.526Z,16.42
2016-12-23T10:35:17.427Z,16.57
2016-12-23T10:36:27.991Z,16.49
2016-12-23T10:37:38.893Z,16.52
2016-12-23T10:38:49.846Z,16.66
2016-12-23T10:40:00.403Z,16.66
2016-12-23T10:41:11.317Z,16.7
2016-12-23T10:42:22.218Z,16.64
2016-12-23T10:43:32.788Z,16.81
2016-12-23T10:44:43.848Z,16.75
2016-12-23T10:45:54.410Z,16.78
2016-12-23T10:47:05.311Z,16.78
2016-12-23T10:48:15.872Z,16.75
2016-12-23T10:49:26.777Z,16.75
2016-12-23T10:50:37.422Z,16.83
2016-12-23T10:51:48.324Z,16.82
2016-12-23T10:52:58.893Z,16.81
2016-12-23T10:54:09.462Z,16.93
2016-12-23T10:55:19.676Z,16.91
2016-12-23T10:56:30.301Z,16.96
2016-12-23T10:57:40.886Z,16.97
2016-12-23T10:58:51.455Z,16.94
2016-12-23T11:00:09.576Z,16.97
2016-12-23T11:01:20.485Z,17.06
2016-12-23T11:02:31.451Z,17.04
2016-12-23T11:03:42.364Z,17.04
2016-12-23T11:04:52.937Z,17.07
2016-12-23T11:06:03.159Z,17.15
2016-12-23T11:07:13.808Z,17.07
2016-12-23T11:08:24.365Z,17.06
2016-12-23T11:09:34.938Z,17.18
2016-12-23T11:10:45.167Z,17.16
2016-12-23T11:11:55.757Z,17.22
2016-12-23T11:13:06.122Z,17.3
2016-12-23T11:14:17.039Z,17.23
2016-12-23T11:15:27.940Z,17.34
2016-12-23T11:16:38.510Z,17.26
2016-12-23T11:17:49.078Z,17.37
2016-12-23T11:19:00.032Z,17.36
2016-12-23T11:20:10.945Z,17.38
2016-12-23T11:21:21.858Z,17.38
2016-12-23T11:22:32.432Z,17.46
2016-12-23T11:23:43.349Z,17.43
2016-12-23T11:24:53.965Z,17.52
2016-12-23T11:26:04.871Z,17.38
2016-12-23T11:27:15.780Z,17.55
2016-12-23T11:28:26.350Z,17.48
2016-12-23T11:29:37.263Z,17.46
2016-12-23T11:30:47.904Z,17.51
2016-12-23T11:31:58.825Z,17.58
2016-12-23T11:33:09.731Z,17.49
2016-12-23T11:34:20.631Z,17.55
2016-12-23T11:35:31.569Z,17.55
2016-12-23T11:36:42.538Z,17.54
2016-12-23T11:37:52.755Z,17.52
2016-12-23T11:39:03.329Z,17.49
2016-12-23T11:40:14.233Z,17.55
2016-12-23T11:41:25.146Z,17.56
2016-12-23T11:42:35.913Z,17.56
2016-12-23T11:43:46.817Z,17.58
2016-12-23T11:44:57.382Z,17.64
2016-12-23T11:46:07.951Z,17.66
2016-12-23T11:47:18.861Z,17.66
2016-12-23T11:48:29.479Z,17.74
2016-12-23T11:49:40.060Z,17.68
2016-12-23T11:50:50.624Z,17.79
2016-12-23T11:52:01.526Z,17.71
2016-12-23T11:53:12.095Z,17.7
2016-12-23T11:54:22.716Z,17.71
2016-12-23T11:55:33.657Z,17.71
2016-12-23T11:56:44.223Z,17.72
2016-12-23T11:57:55.136Z,17.74
2016-12-23T11:59:05.704Z,17.75
2016-12-23T12:00:16.718Z,17.77
2016-12-23T12:01:27.295Z,17.78
2016-12-23T12:02:37.861Z,17.84
2016-12-23T12:03:48.118Z,17.75
2016-12-23T12:04:58.675Z,17.87
2016-12-23T12:06:09.644Z,17.82
2016-12-23T12:07:20.561Z,17.84
2016-12-23T12:08:31.127Z,17.79
2016-12-23T12:09:41.696Z,17.87
2016-12-23T12:10:52.261Z,17.89
2016-12-23T12:12:02.682Z,17.9
2016-12-23T12:13:13.595Z,17.9
2016-12-23T12:14:24.156Z,17.86
2016-12-23T12:15:34.722Z,17.97
2016-12-23T12:16:45.634Z,17.92
2016-12-23T12:17:56.396Z,17.9
2016-12-23T12:19:06.613Z,17.86
2016-12-23T12:20:17.183Z,17.9
2016-12-23T12:21:28.111Z,17.92
2016-12-23T12:22:38.681Z,17.96
2016-12-23T12:23:49.638Z,17.89
2016-12-23T12:25:00.203Z,17.99
2016-12-23T12:26:11.116Z,17.87
2016-12-23T12:27:21.678Z,17.87
2016-12-23T12:28:32.259Z,17.92
2016-12-23T12:29:42.876Z,17.92
2016-12-23T12:30:53.441Z,17.9
2016-12-23T12:32:04.010Z,17.99
2016-12-23T12:33:14.916Z,17.99
2016-12-23T12:34:25.481Z,18
2016-12-23T12:35:35.758Z,18.05
2016-12-23T12:36:45.983Z,18.05
2016-12-23T12:37:56.884Z,18.03
2016-12-23T12:39:07.482Z,18.02
2016-12-23T12:40:18.387Z,18.02
2016-12-23T12:41:29.044Z,18.07
2016-12-23T12:42:39.957Z,18.08
2016-12-23T12:43:50.898Z,18.07
2016-12-23T12:45:01.463Z,18.02
2016-12-23T12:46:12.032Z,18.05
2016-12-23T12:47:22.994Z,17.99
2016-12-23T12:48:33.555Z,18.08
2016-12-23T12:49:44.468Z,18.08
2016-12-23T12:50:55.037Z,18.08
2016-12-23T12:52:05.942Z,18.05
2016-12-23T12:53:16.560Z,18.12
2016-12-23T12:54:27.521Z,17.97
2016-12-23T12:55:38.430Z,18.07
2016-12-23T12:56:48.653Z,18.08
2016-12-23T12:57:59.212Z,18.1
2016-12-23T12:59:10.169Z,18.05
2016-12-23T13:00:20.735Z,18.05
2016-12-23T13:01:31.648Z,18.05
2016-12-23T13:02:42.237Z,18.08
2016-12-23T13:03:53.147Z,18
2016-12-23T13:05:04.135Z,18.08
2016-12-23T13:06:14.701Z,18.11
2016-12-23T13:07:25.262Z,18.11
2016-12-23T13:08:36.175Z,18.1
2016-12-23T13:09:47.077Z,18.05
2016-12-23T13:10:57.734Z,18.03
2016-12-23T13:12:08.631Z,18.03
2016-12-23T13:13:19.196Z,18.05
2016-12-23T13:14:30.105Z,18.08
2016-12-23T13:15:40.666Z,18.1
2016-12-23T13:16:51.624Z,18.07
2016-12-23T13:18:02.540Z,18.08
2016-12-23T13:19:13.450Z,18.15
2016-12-23T13:20:24.347Z,18.07
2016-12-23T13:21:34.572Z,18.02
2016-12-23T13:22:45.193Z,18.14
2016-12-23T13:23:56.111Z,18.2
2016-12-23T13:25:07.028Z,18.15
2016-12-23T13:26:17.945Z,18.21
2016-12-23T13:27:28.858Z,18.25
2016-12-23T13:28:39.475Z,18.21
2016-12-23T13:29:50.036Z,18.21
2016-12-23T13:31:00.941Z,18.26
2016-12-23T13:32:11.515Z,18.32
2016-12-23T13:33:22.431Z,18.32
2016-12-23T13:34:33.385Z,18.33
2016-12-23T13:35:43.982Z,18.3
2016-12-23T13:36:54.899Z,18.41
2016-12-23T13:38:05.468Z,18.42
2016-12-23T13:39:16.033Z,18.39
2016-12-23T13:40:26.651Z,18.47
2016-12-23T13:41:37.568Z,18.42
2016-12-23T13:42:48.473Z,18.42
2016-12-23T13:44:02.427Z,18.41
2016-12-23T13:45:12.995Z,18.45
2016-12-23T13:46:23.614Z,18.44
2016-12-23T13:47:34.190Z,18.39
2016-12-23T13:48:45.123Z,18.45
2016-12-23T13:49:56.036Z,18.45
2016-12-23T13:51:06.953Z,18.39
2016-12-23T13:52:17.591Z,18.44
2016-12-23T13:53:28.156Z,18.37
2016-12-23T13:54:38.725Z,18.41
2016-12-23T13:55:49.295Z,18.37
2016-12-23T13:56:59.867Z,18.41
2016-12-23T13:58:10.532Z,18.37
2016-12-23T13:59:20.750Z,18.39
2016-12-23T14:00:31.651Z,18.36
2016-12-23T14:01:42.216Z,18.42
2016-12-23T14:02:52.777Z,18.35
2016-12-23T14:04:03.390Z,18.36
2016-12-23T14:05:13.955Z,18.42
2016-12-23T14:06:24.857Z,18.37
2016-12-23T14:07:35.774Z,18.3
2016-12-23T14:08:46.339Z,18.36
2016-12-23T14:09:57.300Z,18.41
2016-12-23T14:11:07.865Z,18.35
2016-12-23T14:12:18.790Z,18.33
2016-12-23T14:13:29.355Z,18.37
2016-12-23T14:14:40.265Z,18.33
2016-12-23T14:15:50.882Z,18.29
2016-12-23T14:17:01.443Z,18.3
2016-12-23T14:18:12.368Z,18.41
2016-12-23T14:19:23.297Z,18.32
2016-12-23T14:20:33.862Z,18.36
2016-12-23T14:21:44.484Z,18.32
2016-12-23T14:22:55.041Z,18.41
2016-12-23T14:24:05.950Z,18.37
2016-12-23T14:25:16.515Z,18.29
2016-12-23T14:26:27.085Z,18.3
2016-12-23T14:27:38.045Z,18.27
2016-12-23T14:28:48.611Z,18.3
2016-12-23T14:29:59.520Z,18.25
2016-12-23T14:31:13.913Z,18.23
2016-12-23T14:32:24.506Z,18.2
2016-12-23T14:33:35.112Z,18.27
2016-12-23T14:34:45.673Z,18.25
2016-12-23T14:35:56.250Z,18.2
2016-12-23T14:37:07.175Z,18.25
2016-12-23T14:38:18.084Z,18.23
2016-12-23T14:39:29.045Z,18.23
2016-12-23T14:40:39.607Z,18.23
2016-12-23T14:41:50.183Z,18.26
2016-12-23T14:43:00.753Z,18.2
2016-12-23T14:44:11.670Z,18.26
2016-12-23T14:45:22.315Z,18.23
2016-12-23T14:46:33.222Z,18.14
2016-12-23T14:47:43.789Z,18.17
2016-12-23T14:48:54.362Z,18.2
2016-12-23T14:50:04.940Z,18.21
2016-12-23T14:51:16.104Z,18.21
2016-12-23T14:52:26.677Z,18.18
2016-12-23T14:53:37.242Z,18.17
2016-12-23T14:54:47.811Z,18.26
2016-12-23T14:55:58.721Z,18.12
2016-12-23T14:57:09.429Z,18.17
2016-12-23T14:58:20.002Z,18.21
2016-12-23T14:59:30.575Z,18.2
2016-12-23T15:00:41.488Z,18.18
2016-12-23T15:01:52.402Z,18.21
2016-12-23T15:03:03.023Z,18.11
2016-12-23T15:04:13.588Z,18.14
2016-12-23T15:05:24.165Z,18.11
2016-12-23T15:06:35.074Z,18.14
2016-12-23T15:07:45.983Z,18.11
2016-12-23T15:08:56.944Z,18.11
2016-12-23T15:10:07.862Z,18.25
2016-12-23T15:11:18.431Z,18.18
2016-12-23T15:12:29.004Z,18.11
2016-12-23T15:13:39.921Z,18.08
2016-12-23T15:14:50.542Z,18.1